sensor_id;sensor_type;location;lat;lon;timestamp;pressure;altitude;pressure_sealevel;temperature;humidity
55291;BME280;41155;39.768;2.712;2023-12-28T00:02:02;102255.34;;;11.08;69.66
55291;BME280;41155;39.768;2.712;2023-12-28T00:04:28;102234.84;;;10.88;70.24
55291;BME280;41155;39.768;2.712;2023-12-28T00:06:53;102244.47;;;10.77;70.63
55291;BME280;41155;39.768;2.712;2023-12-28T00:09:19;102213.94;;;10.76;70.72
55291;BME280;41155;39.768;2.712;2023-12-28T00:11:44;102232.94;;;10.95;70.32
55291;BME280;41155;39.768;2.712;2023-12-28T00:14:10;102230.88;;;10.97;69.87
55291;BME280;41155;39.768;2.712;2023-12-28T00:16:35;102224.25;;;10.86;69.25
55291;BME280;41155;39.768;2.712;2023-12-28T00:19:03;102235.91;;;10.35;70.79
55291;BME280;41155;39.768;2.712;2023-12-28T00:21:32;102227.59;;;10.30;72.16
55291;BME280;41155;39.768;2.712;2023-12-28T00:23:57;102211.41;;;10.23;72.70
55291;BME280;41155;39.768;2.712;2023-12-28T00:26:23;102227.19;;;10.19;73.71
55291;BME280;41155;39.768;2.712;2023-12-28T00:28:48;102226.16;;;10.21;73.42
55291;BME280;41155;39.768;2.712;2023-12-28T00:31:14;102209.72;;;10.35;73.10
55291;BME280;41155;39.768;2.712;2023-12-28T00:33:39;102208.03;;;10.48;72.28
55291;BME280;41155;39.768;2.712;2023-12-28T00:36:05;102209.41;;;10.63;71.54
55291;BME280;41155;39.768;2.712;2023-12-28T00:38:30;102206.13;;;10.55;70.88
55291;BME280;41155;39.768;2.712;2023-12-28T00:41:00;102216.91;;;10.55;70.83
55291;BME280;41155;39.768;2.712;2023-12-28T00:43:26;102207.13;;;10.60;70.62
55291;BME280;41155;39.768;2.712;2023-12-28T00:45:51;102201.97;;;10.52;70.17
55291;BME280;41155;39.768;2.712;2023-12-28T00:48:17;102202.47;;;10.23;70.68
55291;BME280;41155;39.768;2.712;2023-12-28T00:50:42;102206.00;;;10.30;70.61
55291;BME280;41155;39.768;2.712;2023-12-28T00:53:08;102197.50;;;10.19;70.30
55291;BME280;41155;39.768;2.712;2023-12-28T00:55:33;102209.31;;;10.32;70.33
55291;BME280;41155;39.768;2.712;2023-12-28T00:57:59;102209.28;;;10.45;70.33
55291;BME280;41155;39.768;2.712;2023-12-28T01:00:24;102200.56;;;10.43;69.81
55291;BME280;41155;39.768;2.712;2023-12-28T01:02:50;102194.09;;;10.44;69.91
55291;BME280;41155;39.768;2.712;2023-12-28T01:05:16;102203.88;;;10.45;69.30
55291;BME280;41155;39.768;2.712;2023-12-28T01:07:42;102195.66;;;10.13;69.77
55291;BME280;41155;39.768;2.712;2023-12-28T01:10:07;102191.09;;;10.14;70.28
55291;BME280;41155;39.768;2.712;2023-12-28T01:12:33;102201.66;;;10.29;70.20
55291;BME280;41155;39.768;2.712;2023-12-28T01:14:59;102183.38;;;10.31;70.17
55291;BME280;41155;39.768;2.712;2023-12-28T01:17:24;102196.44;;;10.21;70.33
55291;BME280;41155;39.768;2.712;2023-12-28T01:19:49;102201.25;;;10.18;70.40
55291;BME280;41155;39.768;2.712;2023-12-28T01:22:15;102196.03;;;10.24;69.85
55291;BME280;41155;39.768;2.712;2023-12-28T01:24:40;102181.97;;;10.02;69.43
55291;BME280;41155;39.768;2.712;2023-12-28T01:27:06;102183.59;;;10.09;69.63
55291;BME280;41155;39.768;2.712;2023-12-28T01:29:31;102172.44;;;9.99;69.61
55291;BME280;41155;39.768;2.712;2023-12-28T01:31:58;102170.88;;;9.38;70.59
55291;BME280;41155;39.768;2.712;2023-12-28T01:34:23;102151.78;;;9.00;73.45
55291;BME280;41155;39.768;2.712;2023-12-28T01:36:49;102167.34;;;9.38;73.25
55291;BME280;41155;39.768;2.712;2023-12-28T01:39:14;102181.00;;;9.63;72.71
55291;BME280;41155;39.768;2.712;2023-12-28T01:41:41;102180.16;;;9.76;71.83
55291;BME280;41155;39.768;2.712;2023-12-28T01:44:06;102171.44;;;9.73;71.28
55291;BME280;41155;39.768;2.712;2023-12-28T01:46:32;102190.31;;;9.87;70.95
55291;BME280;41155;39.768;2.712;2023-12-28T01:48:58;102188.44;;;9.94;70.28
55291;BME280;41155;39.768;2.712;2023-12-28T01:51:25;102191.59;;;9.24;70.85
55291;BME280;41155;39.768;2.712;2023-12-28T01:53:51;102206.28;;;8.41;75.12
55291;BME280;41155;39.768;2.712;2023-12-28T01:56:18;102203.69;;;8.26;77.17
55291;BME280;41155;39.768;2.712;2023-12-28T01:58:46;102200.59;;;8.29;76.39
55291;BME280;41155;39.768;2.712;2023-12-28T02:01:11;102209.06;;;8.26;77.09
55291;BME280;41155;39.768;2.712;2023-12-28T02:03:38;102199.38;;;8.31;77.47
55291;BME280;41155;39.768;2.712;2023-12-28T02:06:04;102220.66;;;8.61;77.11
55291;BME280;41155;39.768;2.712;2023-12-28T02:08:31;102213.44;;;8.68;76.70
55291;BME280;41155;39.768;2.712;2023-12-28T02:10:57;102212.41;;;8.76;77.33
55291;BME280;41155;39.768;2.712;2023-12-28T02:13:23;102210.19;;;8.93;76.49
55291;BME280;41155;39.768;2.712;2023-12-28T02:15:54;102217.69;;;9.04;75.84
55291;BME280;41155;39.768;2.712;2023-12-28T02:18:27;102219.59;;;9.23;75.11
55291;BME280;41155;39.768;2.712;2023-12-28T02:20:57;102228.91;;;9.34;74.70
55291;BME280;41155;39.768;2.712;2023-12-28T02:23:26;102226.44;;;9.46;73.83
55291;BME280;41155;39.768;2.712;2023-12-28T02:25:51;102226.63;;;9.51;73.15
55291;BME280;41155;39.768;2.712;2023-12-28T02:28:17;102222.50;;;9.68;72.02
55291;BME280;41155;39.768;2.712;2023-12-28T02:30:42;102221.88;;;9.80;71.08
55291;BME280;41155;39.768;2.712;2023-12-28T02:33:24;102221.06;;;9.72;70.39
55291;BME280;41155;39.768;2.712;2023-12-28T02:36:01;102218.53;;;9.71;70.00
55291;BME280;41155;39.768;2.712;2023-12-28T02:38:33;102228.53;;;9.64;69.68
55291;BME280;41155;39.768;2.712;2023-12-28T02:41:03;102221.25;;;9.64;69.74
55291;BME280;41155;39.768;2.712;2023-12-28T02:43:29;102221.88;;;9.33;69.06
55291;BME280;41155;39.768;2.712;2023-12-28T02:45:54;102217.31;;;9.20;69.47
55291;BME280;41155;39.768;2.712;2023-12-28T02:48:20;102221.38;;;8.90;70.71
55291;BME280;41155;39.768;2.712;2023-12-28T02:50:45;102216.00;;;8.07;74.68
55291;BME280;41155;39.768;2.712;2023-12-28T02:53:12;102209.25;;;7.89;76.17
55291;BME280;41155;39.768;2.712;2023-12-28T02:55:38;102206.16;;;7.86;77.22
55291;BME280;41155;39.768;2.712;2023-12-28T02:58:03;102210.97;;;7.97;76.50
55291;BME280;41155;39.768;2.712;2023-12-28T03:00:29;102205.31;;;8.20;76.61
55291;BME280;41155;39.768;2.712;2023-12-28T03:02:55;102211.09;;;8.52;76.01
55291;BME280;41155;39.768;2.712;2023-12-28T03:05:20;102214.69;;;8.72;74.84
55291;BME280;41155;39.768;2.712;2023-12-28T03:07:46;102213.63;;;8.67;73.74
55291;BME280;41155;39.768;2.712;2023-12-28T03:10:11;102204.13;;;8.71;72.96
55291;BME280;41155;39.768;2.712;2023-12-28T03:12:37;102214.44;;;8.19;73.36
55291;BME280;41155;39.768;2.712;2023-12-28T03:15:04;102220.41;;;8.14;73.83
55291;BME280;41155;39.768;2.712;2023-12-28T03:17:30;102223.97;;;8.22;74.64
55291;BME280;41155;39.768;2.712;2023-12-28T03:19:56;102219.94;;;8.39;73.91
55291;BME280;41155;39.768;2.712;2023-12-28T03:22:22;102224.31;;;8.47;73.77
55291;BME280;41155;39.768;2.712;2023-12-28T03:24:47;102205.72;;;8.17;73.69
55291;BME280;41155;39.768;2.712;2023-12-28T03:27:14;102224.41;;;8.25;74.15
55291;BME280;41155;39.768;2.712;2023-12-28T03:29:43;102216.50;;;8.24;74.24
55291;BME280;41155;39.768;2.712;2023-12-28T03:32:08;102206.97;;;8.21;74.11
55291;BME280;41155;39.768;2.712;2023-12-28T03:34:34;102209.44;;;8.16;74.38
55291;BME280;41155;39.768;2.712;2023-12-28T03:37:00;102205.28;;;8.13;74.38
55291;BME280;41155;39.768;2.712;2023-12-28T03:39:26;102195.66;;;7.98;74.96
55291;BME280;41155;39.768;2.712;2023-12-28T03:41:51;102193.06;;;8.11;75.54
55291;BME280;41155;39.768;2.712;2023-12-28T03:44:20;102158.13;;;8.18;74.85
55291;BME280;41155;39.768;2.712;2023-12-28T03:46:50;102171.66;;;8.37;74.45
55291;BME280;41155;39.768;2.712;2023-12-28T03:49:19;102178.53;;;8.40;74.49
55291;BME280;41155;39.768;2.712;2023-12-28T03:51:48;102161.97;;;8.43;73.69
55291;BME280;41155;39.768;2.712;2023-12-28T03:54:18;102154.69;;;9.25;81.87
55291;BME280;41155;39.768;2.712;2023-12-28T03:56:43;102172.91;;;9.03;77.46
55291;BME280;41155;39.768;2.712;2023-12-28T03:59:10;102168.56;;;9.15;79.73
55291;BME280;41155;39.768;2.712;2023-12-28T04:01:36;102176.81;;;8.94;76.30
55291;BME280;41155;39.768;2.712;2023-12-28T04:04:01;102180.09;;;8.69;75.61
55291;BME280;41155;39.768;2.712;2023-12-28T04:06:27;102179.28;;;8.75;75.36
55291;BME280;41155;39.768;2.712;2023-12-28T04:08:55;102188.41;;;8.81;75.92
55291;BME280;41155;39.768;2.712;2023-12-28T04:11:21;102193.84;;;8.94;75.50
55291;BME280;41155;39.768;2.712;2023-12-28T04:13:46;102191.50;;;8.85;74.37
55291;BME280;41155;39.768;2.712;2023-12-28T04:16:15;102182.19;;;8.74;74.63
55291;BME280;41155;39.768;2.712;2023-12-28T04:18:42;102190.66;;;8.71;75.34
55291;BME280;41155;39.768;2.712;2023-12-28T04:21:11;102196.22;;;8.63;75.11
55291;BME280;41155;39.768;2.712;2023-12-28T04:23:38;102198.94;;;8.69;75.32
55291;BME280;41155;39.768;2.712;2023-12-28T04:26:03;102189.00;;;8.76;74.83
55291;BME280;41155;39.768;2.712;2023-12-28T04:28:29;102193.53;;;8.63;75.16
55291;BME280;41155;39.768;2.712;2023-12-28T04:30:55;102177.34;;;8.56;75.88
55291;BME280;41155;39.768;2.712;2023-12-28T04:33:20;102171.75;;;8.57;76.13
55291;BME280;41155;39.768;2.712;2023-12-28T04:35:46;102181.97;;;8.75;76.04
55291;BME280;41155;39.768;2.712;2023-12-28T04:38:12;102171.59;;;8.72;75.42
55291;BME280;41155;39.768;2.712;2023-12-28T04:40:38;102183.84;;;8.81;74.92
55291;BME280;41155;39.768;2.712;2023-12-28T04:43:03;102184.25;;;8.78;74.70
55291;BME280;41155;39.768;2.712;2023-12-28T04:45:29;102176.78;;;8.74;75.17
55291;BME280;41155;39.768;2.712;2023-12-28T04:47:54;102187.97;;;8.77;75.30
55291;BME280;41155;39.768;2.712;2023-12-28T04:50:20;102182.59;;;8.91;74.81
55291;BME280;41155;39.768;2.712;2023-12-28T04:52:45;102181.59;;;8.98;75.11
55291;BME280;41155;39.768;2.712;2023-12-28T04:55:11;102171.66;;;8.99;74.73
55291;BME280;41155;39.768;2.712;2023-12-28T04:57:37;102171.25;;;8.95;74.58
55291;BME280;41155;39.768;2.712;2023-12-28T05:00:03;102161.28;;;8.96;74.86
55291;BME280;41155;39.768;2.712;2023-12-28T05:02:29;102169.13;;;8.84;74.70
55291;BME280;41155;39.768;2.712;2023-12-28T05:04:54;102171.66;;;8.86;75.31
55291;BME280;41155;39.768;2.712;2023-12-28T05:07:20;102181.78;;;8.90;75.12
55291;BME280;41155;39.768;2.712;2023-12-28T05:09:45;102175.63;;;9.03;74.99
55291;BME280;41155;39.768;2.712;2023-12-28T05:12:11;102196.75;;;9.06;74.79
55291;BME280;41155;39.768;2.712;2023-12-28T05:14:36;102182.38;;;8.79;74.81
55291;BME280;41155;39.768;2.712;2023-12-28T05:17:02;102193.59;;;8.82;75.27
55291;BME280;41155;39.768;2.712;2023-12-28T05:19:27;102199.41;;;8.79;75.81
55291;BME280;41155;39.768;2.712;2023-12-28T05:21:53;102202.28;;;8.85;76.00
55291;BME280;41155;39.768;2.712;2023-12-28T05:24:18;102197.75;;;8.92;76.04
55291;BME280;41155;39.768;2.712;2023-12-28T05:26:44;102209.13;;;8.94;75.78
55291;BME280;41155;39.768;2.712;2023-12-28T05:29:09;102189.88;;;8.90;75.18
55291;BME280;41155;39.768;2.712;2023-12-28T05:31:35;102206.63;;;8.79;75.66
55291;BME280;41155;39.768;2.712;2023-12-28T05:34:00;102216.38;;;8.87;75.87
55291;BME280;41155;39.768;2.712;2023-12-28T05:36:26;102209.47;;;8.64;75.94
55291;BME280;41155;39.768;2.712;2023-12-28T05:38:51;102205.16;;;8.70;76.63
55291;BME280;41155;39.768;2.712;2023-12-28T05:41:17;102197.34;;;8.88;76.33
55291;BME280;41155;39.768;2.712;2023-12-28T05:43:42;102193.78;;;8.74;76.32
55291;BME280;41155;39.768;2.712;2023-12-28T05:46:08;102200.03;;;8.88;76.74
55291;BME280;41155;39.768;2.712;2023-12-28T05:48:34;102200.03;;;8.95;76.08
55291;BME280;41155;39.768;2.712;2023-12-28T05:51:00;102186.94;;;8.78;75.57
55291;BME280;41155;39.768;2.712;2023-12-28T05:53:25;102188.41;;;8.88;75.73
55291;BME280;41155;39.768;2.712;2023-12-28T05:55:52;102184.91;;;8.87;75.79
55291;BME280;41155;39.768;2.712;2023-12-28T05:58:21;102187.56;;;8.80;75.89
55291;BME280;41155;39.768;2.712;2023-12-28T06:00:47;102183.19;;;8.73;76.13
55291;BME280;41155;39.768;2.712;2023-12-28T06:03:13;102173.06;;;8.68;76.27
55291;BME280;41155;39.768;2.712;2023-12-28T06:05:39;102183.59;;;8.70;76.80
55291;BME280;41155;39.768;2.712;2023-12-28T06:08:05;102185.22;;;8.51;76.76
55291;BME280;41155;39.768;2.712;2023-12-28T06:10:30;102179.44;;;8.54;76.67
55291;BME280;41155;39.768;2.712;2023-12-28T06:12:56;102184.97;;;8.39;77.14
55291;BME280;41155;39.768;2.712;2023-12-28T06:15:22;102170.56;;;8.25;78.00
55291;BME280;41155;39.768;2.712;2023-12-28T06:17:47;102185.00;;;8.11;78.61
55291;BME280;41155;39.768;2.712;2023-12-28T06:20:13;102184.38;;;8.15;78.88
55291;BME280;41155;39.768;2.712;2023-12-28T06:22:39;102174.25;;;8.18;78.87
55291;BME280;41155;39.768;2.712;2023-12-28T06:25:05;102176.78;;;8.26;78.66
55291;BME280;41155;39.768;2.712;2023-12-28T06:27:31;102182.56;;;8.23;78.83
55291;BME280;41155;39.768;2.712;2023-12-28T06:29:57;102179.50;;;8.32;78.75
55291;BME280;41155;39.768;2.712;2023-12-28T06:32:22;102193.88;;;8.46;78.63
55291;BME280;41155;39.768;2.712;2023-12-28T06:34:48;102177.22;;;8.36;78.06
55291;BME280;41155;39.768;2.712;2023-12-28T06:37:14;102197.41;;;8.47;77.77
55291;BME280;41155;39.768;2.712;2023-12-28T06:39:40;102195.53;;;8.47;78.22
55291;BME280;41155;39.768;2.712;2023-12-28T06:42:05;102199.63;;;8.36;78.21
55291;BME280;41155;39.768;2.712;2023-12-28T06:44:31;102216.00;;;8.42;78.57
55291;BME280;41155;39.768;2.712;2023-12-28T06:46:56;102203.94;;;8.31;79.53
55291;BME280;41155;39.768;2.712;2023-12-28T06:49:23;102216.25;;;8.47;79.75
55291;BME280;41155;39.768;2.712;2023-12-28T06:51:48;102234.03;;;8.41;79.14
55291;BME280;41155;39.768;2.712;2023-12-28T06:54:14;102237.34;;;8.43;79.00
55291;BME280;41155;39.768;2.712;2023-12-28T06:56:40;102245.25;;;8.45;78.63
55291;BME280;41155;39.768;2.712;2023-12-28T06:59:06;102229.63;;;8.33;78.13
55291;BME280;41155;39.768;2.712;2023-12-28T07:01:31;102252.56;;;8.29;78.49
55291;BME280;41155;39.768;2.712;2023-12-28T07:03:57;102257.94;;;8.29;78.37
55291;BME280;41155;39.768;2.712;2023-12-28T07:06:24;102259.72;;;8.44;78.94
55291;BME280;41155;39.768;2.712;2023-12-28T07:08:50;102251.97;;;8.34;78.37
55291;BME280;41155;39.768;2.712;2023-12-28T07:11:15;102266.16;;;8.21;78.97
55291;BME280;41155;39.768;2.712;2023-12-28T07:13:41;102264.53;;;8.27;79.41
55291;BME280;41155;39.768;2.712;2023-12-28T07:16:06;102260.75;;;8.43;79.98
55291;BME280;41155;39.768;2.712;2023-12-28T07:18:33;102267.63;;;8.52;80.16
55291;BME280;41155;39.768;2.712;2023-12-28T07:20:58;102264.97;;;8.58;79.96
55291;BME280;41155;39.768;2.712;2023-12-28T07:23:24;102232.56;;;8.38;79.00
55291;BME280;41155;39.768;2.712;2023-12-28T07:25:49;102261.50;;;8.71;78.80
55291;BME280;41155;39.768;2.712;2023-12-28T07:28:15;102253.47;;;8.85;78.16
55291;BME280;41155;39.768;2.712;2023-12-28T07:30:44;102219.84;;;8.67;77.11
55291;BME280;41155;39.768;2.712;2023-12-28T07:33:09;102250.09;;;8.69;77.20
55291;BME280;41155;39.768;2.712;2023-12-28T07:35:35;102236.22;;;8.66;77.50
55291;BME280;41155;39.768;2.712;2023-12-28T07:38:00;102223.75;;;8.58;77.73
55291;BME280;41155;39.768;2.712;2023-12-28T07:40:26;102245.38;;;8.78;77.29
55291;BME280;41155;39.768;2.712;2023-12-28T07:42:53;102239.41;;;8.89;77.56
55291;BME280;41155;39.768;2.712;2023-12-28T07:45:18;102233.56;;;8.79;77.06
55291;BME280;41155;39.768;2.712;2023-12-28T07:47:49;102243.97;;;8.89;77.44
55291;BME280;41155;39.768;2.712;2023-12-28T07:50:15;102246.25;;;8.92;77.07
55291;BME280;41155;39.768;2.712;2023-12-28T07:52:42;102232.31;;;8.81;76.95
55291;BME280;41155;39.768;2.712;2023-12-28T07:55:08;102259.91;;;8.90;76.96
55291;BME280;41155;39.768;2.712;2023-12-28T07:57:34;102249.47;;;8.67;77.62
55291;BME280;41155;39.768;2.712;2023-12-28T08:00:00;102259.81;;;8.70;77.79
55291;BME280;41155;39.768;2.712;2023-12-28T08:02:26;102273.13;;;8.78;77.56
55291;BME280;41155;39.768;2.712;2023-12-28T08:04:52;102277.19;;;8.61;77.62
55291;BME280;41155;39.768;2.712;2023-12-28T08:07:18;102277.03;;;8.69;77.80
55291;BME280;41155;39.768;2.712;2023-12-28T08:09:44;102273.75;;;8.74;78.31
55291;BME280;41155;39.768;2.712;2023-12-28T08:12:10;102276.47;;;8.80;78.00
55291;BME280;41155;39.768;2.712;2023-12-28T08:14:35;102272.88;;;8.73;78.89
55291;BME280;41155;39.768;2.712;2023-12-28T08:17:01;102282.28;;;8.91;79.02
55291;BME280;41155;39.768;2.712;2023-12-28T08:19:26;102288.56;;;9.04;78.47
55291;BME280;41155;39.768;2.712;2023-12-28T08:21:52;102251.00;;;8.90;78.57
55291;BME280;41155;39.768;2.712;2023-12-28T08:24:17;102278.25;;;9.21;78.94
55291;BME280;41155;39.768;2.712;2023-12-28T08:26:43;102256.63;;;9.08;80.11
55291;BME280;41155;39.768;2.712;2023-12-28T08:29:08;102281.16;;;9.33;79.30
55291;BME280;41155;39.768;2.712;2023-12-28T08:31:33;102279.34;;;9.47;78.59
55291;BME280;41155;39.768;2.712;2023-12-28T08:33:59;102269.56;;;9.39;77.72
55291;BME280;41155;39.768;2.712;2023-12-28T08:36:25;102271.47;;;9.52;77.25
55291;BME280;41155;39.768;2.712;2023-12-28T08:38:50;102285.78;;;9.59;76.27
55291;BME280;41155;39.768;2.712;2023-12-28T08:41:23;102284.53;;;9.55;76.27
55291;BME280;41155;39.768;2.712;2023-12-28T08:43:52;102293.44;;;9.49;75.29
55291;BME280;41155;39.768;2.712;2023-12-28T08:46:19;102281.56;;;9.23;76.10
55291;BME280;41155;39.768;2.712;2023-12-28T08:48:55;102306.28;;;9.54;75.66
55291;BME280;41155;39.768;2.712;2023-12-28T08:51:21;102311.00;;;9.25;75.81
55291;BME280;41155;39.768;2.712;2023-12-28T08:53:47;102314.97;;;9.36;76.14
55291;BME280;41155;39.768;2.712;2023-12-28T08:56:19;102311.03;;;9.38;76.23
55291;BME280;41155;39.768;2.712;2023-12-28T08:58:46;102309.75;;;9.21;77.14
55291;BME280;41155;39.768;2.712;2023-12-28T09:01:22;102301.88;;;9.19;76.95
55291;BME280;41155;39.768;2.712;2023-12-28T09:03:51;102307.25;;;9.19;77.86
55291;BME280;41155;39.768;2.712;2023-12-28T09:06:18;102292.72;;;9.07;79.12
55291;BME280;41155;39.768;2.712;2023-12-28T09:08:47;102319.31;;;9.23;79.30
55291;BME280;41155;39.768;2.712;2023-12-28T09:11:13;102313.09;;;9.30;79.12
55291;BME280;41155;39.768;2.712;2023-12-28T09:13:39;102314.38;;;9.60;79.26
55291;BME280;41155;39.768;2.712;2023-12-28T09:16:07;102312.44;;;11.19;77.69
55291;BME280;41155;39.768;2.712;2023-12-28T09:18:33;102335.97;;;12.94;68.66
55291;BME280;41155;39.768;2.712;2023-12-28T09:21:01;102304.19;;;13.96;63.79
55291;BME280;41155;39.768;2.712;2023-12-28T09:23:27;102333.97;;;15.71;60.17
55291;BME280;41155;39.768;2.712;2023-12-28T09:26:03;102293.94;;;16.44;57.20
55291;BME280;41155;39.768;2.712;2023-12-28T09:28:29;102335.13;;;17.09;53.38
55291;BME280;41155;39.768;2.712;2023-12-28T09:30:55;102324.47;;;17.61;53.32
55291;BME280;41155;39.768;2.712;2023-12-28T09:33:20;102335.88;;;19.43;49.51
55291;BME280;41155;39.768;2.712;2023-12-28T09:35:47;102326.06;;;20.04;46.99
55291;BME280;41155;39.768;2.712;2023-12-28T09:38:14;102341.72;;;19.83;46.99
55291;BME280;41155;39.768;2.712;2023-12-28T09:40:43;102334.47;;;20.59;44.82
55291;BME280;41155;39.768;2.712;2023-12-28T09:43:25;102310.69;;;21.48;42.83
55291;BME280;41155;39.768;2.712;2023-12-28T09:45:51;102344.47;;;22.46;40.62
55291;BME280;41155;39.768;2.712;2023-12-28T09:48:17;102344.03;;;21.76;41.23
55291;BME280;41155;39.768;2.712;2023-12-28T09:50:50;102338.72;;;22.14;41.79
55291;BME280;41155;39.768;2.712;2023-12-28T09:53:19;102333.31;;;22.32;41.80
55291;BME280;41155;39.768;2.712;2023-12-28T09:55:45;102329.75;;;23.42;39.29
55291;BME280;41155;39.768;2.712;2023-12-28T09:58:12;102327.41;;;23.68;39.53
55291;BME280;41155;39.768;2.712;2023-12-28T10:00:43;102325.72;;;23.53;38.97
55291;BME280;41155;39.768;2.712;2023-12-28T10:03:16;102323.78;;;23.73;39.31
55291;BME280;41155;39.768;2.712;2023-12-28T10:05:43;102332.88;;;23.16;40.78
55291;BME280;41155;39.768;2.712;2023-12-28T10:08:11;102336.50;;;22.69;40.64
55291;BME280;41155;39.768;2.712;2023-12-28T10:10:41;102317.50;;;21.56;44.36
55291;BME280;41155;39.768;2.712;2023-12-28T10:13:08;102323.28;;;20.40;47.75
55291;BME280;41155;39.768;2.712;2023-12-28T10:15:35;102319.25;;;19.96;50.22
55291;BME280;41155;39.768;2.712;2023-12-28T10:18:01;102316.63;;;18.45;54.12
55291;BME280;41155;39.768;2.712;2023-12-28T10:20:28;102305.19;;;18.11;54.96
55291;BME280;41155;39.768;2.712;2023-12-28T10:22:53;102302.47;;;18.05;54.02
55291;BME280;41155;39.768;2.712;2023-12-28T10:25:19;102296.88;;;17.90;54.56
55291;BME280;41155;39.768;2.712;2023-12-28T10:27:45;102284.81;;;17.54;54.68
55291;BME280;41155;39.768;2.712;2023-12-28T10:30:11;102283.75;;;17.60;54.03
55291;BME280;41155;39.768;2.712;2023-12-28T10:32:40;102280.97;;;17.55;54.17
55291;BME280;41155;39.768;2.712;2023-12-28T10:35:06;102287.84;;;17.57;54.28
55291;BME280;41155;39.768;2.712;2023-12-28T10:37:32;102273.31;;;17.52;54.48
55291;BME280;41155;39.768;2.712;2023-12-28T10:40:05;102262.69;;;17.55;54.80
55291;BME280;41155;39.768;2.712;2023-12-28T10:42:32;102265.25;;;17.35;56.02
55291;BME280;41155;39.768;2.712;2023-12-28T10:45:05;102275.44;;;17.17;57.38
55291;BME280;41155;39.768;2.712;2023-12-28T10:47:32;102265.19;;;17.03;55.71
55291;BME280;41155;39.768;2.712;2023-12-28T10:50:04;102278.38;;;17.11;59.52
55291;BME280;41155;39.768;2.712;2023-12-28T10:52:32;102263.63;;;17.07;56.56
55291;BME280;41155;39.768;2.712;2023-12-28T10:55:20;102259.94;;;17.23;58.46
55291;BME280;41155;39.768;2.712;2023-12-28T10:57:59;102257.84;;;17.03;57.55
55291;BME280;41155;39.768;2.712;2023-12-28T11:00:30;102244.25;;;17.08;60.45
55291;BME280;41155;39.768;2.712;2023-12-28T11:03:03;102257.94;;;17.13;58.11
55291;BME280;41155;39.768;2.712;2023-12-28T11:05:32;102263.09;;;17.10;60.76
55291;BME280;41155;39.768;2.712;2023-12-28T11:07:59;102255.75;;;17.10;62.21
55291;BME280;41155;39.768;2.712;2023-12-28T11:10:26;102256.09;;;17.19;61.73
55291;BME280;41155;39.768;2.712;2023-12-28T11:12:54;102257.22;;;17.23;60.51
55291;BME280;41155;39.768;2.712;2023-12-28T11:15:22;102232.94;;;17.27;61.84
55291;BME280;41155;39.768;2.712;2023-12-28T11:17:49;102252.94;;;17.32;62.05
55291;BME280;41155;39.768;2.712;2023-12-28T11:20:15;102240.94;;;17.33;60.89
55291;BME280;41155;39.768;2.712;2023-12-28T11:22:41;102247.47;;;17.32;62.16
55291;BME280;41155;39.768;2.712;2023-12-28T11:25:14;102248.72;;;17.20;61.65
55291;BME280;41155;39.768;2.712;2023-12-28T11:27:43;102247.84;;;17.14;62.58
55291;BME280;41155;39.768;2.712;2023-12-28T11:30:10;102252.72;;;17.12;63.99
55291;BME280;41155;39.768;2.712;2023-12-28T11:32:36;102252.56;;;17.24;63.88
55291;BME280;41155;39.768;2.712;2023-12-28T11:35:02;102236.19;;;17.24;63.42
55291;BME280;41155;39.768;2.712;2023-12-28T11:37:29;102239.91;;;17.39;63.59
55291;BME280;41155;39.768;2.712;2023-12-28T11:39:56;102230.78;;;17.61;62.06
55291;BME280;41155;39.768;2.712;2023-12-28T11:42:23;102229.91;;;17.88;60.13
55291;BME280;41155;39.768;2.712;2023-12-28T11:44:56;102233.84;;;18.07;58.62
55291;BME280;41155;39.768;2.712;2023-12-28T11:47:23;102229.91;;;18.35;58.15
55291;BME280;41155;39.768;2.712;2023-12-28T11:49:49;102228.34;;;18.55;56.87
55291;BME280;41155;39.768;2.712;2023-12-28T11:52:30;102225.09;;;18.68;56.08
55291;BME280;41155;39.768;2.712;2023-12-28T11:54:57;102224.06;;;18.79;55.55
55291;BME280;41155;39.768;2.712;2023-12-28T11:57:23;102206.31;;;18.87;54.94
55291;BME280;41155;39.768;2.712;2023-12-28T11:59:56;102218.38;;;19.01;54.83
55291;BME280;41155;39.768;2.712;2023-12-28T12:02:22;102224.94;;;19.05;54.41
55291;BME280;41155;39.768;2.712;2023-12-28T12:04:49;102222.19;;;19.10;54.17
55291;BME280;41155;39.768;2.712;2023-12-28T12:07:15;102222.50;;;19.19;53.97
55291;BME280;41155;39.768;2.712;2023-12-28T12:09:40;102203.03;;;19.20;53.68
55291;BME280;41155;39.768;2.712;2023-12-28T12:12:07;102209.34;;;19.36;54.45
55291;BME280;41155;39.768;2.712;2023-12-28T12:14:34;102194.81;;;19.46;54.59
55291;BME280;41155;39.768;2.712;2023-12-28T12:17:00;102191.81;;;19.48;54.02
55291;BME280;41155;39.768;2.712;2023-12-28T12:19:27;102187.16;;;19.48;54.09
55291;BME280;41155;39.768;2.712;2023-12-28T12:21:53;102181.69;;;19.53;53.62
55291;BME280;41155;39.768;2.712;2023-12-28T12:24:22;102179.19;;;19.47;52.99
55291;BME280;41155;39.768;2.712;2023-12-28T12:26:49;102145.25;;;19.32;53.39
55291;BME280;41155;39.768;2.712;2023-12-28T12:29:15;102146.06;;;19.38;53.71
55291;BME280;41155;39.768;2.712;2023-12-28T12:31:41;102128.56;;;19.29;53.67
55291;BME280;41155;39.768;2.712;2023-12-28T12:34:11;102129.38;;;19.39;53.64
55291;BME280;41155;39.768;2.712;2023-12-28T12:36:37;102122.22;;;19.49;53.40
55291;BME280;41155;39.768;2.712;2023-12-28T12:39:04;102116.44;;;19.55;53.20
55291;BME280;41155;39.768;2.712;2023-12-28T12:41:34;102106.34;;;19.56;53.03
55291;BME280;41155;39.768;2.712;2023-12-28T12:44:03;102107.41;;;19.50;53.23
55291;BME280;41155;39.768;2.712;2023-12-28T12:46:30;102095.13;;;19.42;53.08
55291;BME280;41155;39.768;2.712;2023-12-28T12:48:58;102083.09;;;19.28;53.76
55291;BME280;41155;39.768;2.712;2023-12-28T12:51:28;102092.44;;;19.16;54.88
55291;BME280;41155;39.768;2.712;2023-12-28T12:54:00;102090.53;;;19.02;55.97